This is the latest recevied weather packets stored in our database for station/object VO2AGO. If no packets are shown the sender has not sent any weather packets the latest 10 day(s).
| Time | Temp. | Humidity | Pressure | Rain* | Wind** | Luminosity | Snow |
|---|---|---|---|---|---|---|---|
| 1777816701 | 5° C | - | - | - | 0 m/s | 1682 W/m² | - |
| 1777816251 | 3.89° C | - | - | - | 0 m/s | 1094 W/m² | - |
| 1777815801 | 5.56° C | - | - | - | 0 m/s | 981 W/m² | - |
| 1777815351 | 5° C | - | - | - | 0 m/s | 1032 W/m² | - |
| 1777814900 | 4.44° C | - | - | - | 0 m/s | 1223 W/m² | - |
| 1777814450 | 3.89° C | - | - | - | 0 m/s | 1024 W/m² | - |
| 1777814000 | 5° C | - | - | - | 0 m/s | 1109 W/m² | - |
| 1777813551 | 5.56° C | - | - | - | 0 m/s | 1976 W/m² | - |
| 1777813101 | 3.89° C | - | - | - | 0 m/s | 1561 W/m² | - |
| 1777812651 | 2.78° C | - | - | - | 0 m/s | 1068 W/m² | - |
| 1777812201 | 1.67° C | - | - | - | 0 m/s | 834 W/m² | - |
| 1777811751 | 1.11° C | - | - | - | 0 m/s | 854 W/m² | - |
| 1777811301 | 1.11° C | - | - | - | 0 m/s | 662 W/m² | - |
| 1777810850 | 1.11° C | - | - | - | 0 m/s | 534 W/m² | - |
| 1777810401 | 1.11° C | - | - | - | 0 m/s | 506 W/m² | - |
| 1777809951 | 1.11° C | - | - | - | 0 m/s | 603 W/m² | - |
| 1777809500 | 1.11° C | - | - | - | 0 m/s | 508 W/m² | - |
| 1777809050 | 1.67° C | - | - | - | 0 m/s | 557 W/m² | - |
| 1777808601 | 2.22° C | - | - | - | 0 m/s | 468 W/m² | - |
| 1777808150 | 2.78° C | - | - | - | 0 m/s | 1195 W/m² | - |
| 1777807702 | 2.78° C | - | - | - | 0 m/s | 1086 W/m² | - |
| 1777807251 | 2.22° C | - | - | - | 0 m/s | 1066 W/m² | - |
| 1777806800 | 1.11° C | - | - | - | 0 m/s | 902 W/m² | - |
| 1777806350 | 0.56° C | - | - | - | 0 m/s | 841 W/m² | - |
| 1777805900 | 0° C | - | - | - | 0 m/s | 689 W/m² | - |
* Rain since midnight (hover to see other rain measurements)
** Current wind speed in m/s (hover to see current wind gust speed)